Time;durP1;ratioP1;P1;durP2;ratioP2;P2;SDS_P1;SDS_P2;PMS_P1;PMS_P2;Temp;Humidity;BMP_temperature;BMP_pressure;BME280_temperature;BME280_humidity;BME280_pressure;Samples;Min_cycle;Max_cycle;Signal;HPM_P1;HPM_P2
2021/08/13 00:00:06;;;;;;;21.30;13.50;;;;;;;14.07;83.59;99745.30;4175052;83;21011;-81
2021/08/13 00:06:11;;;;;;;18.48;14.00;;;;;;;13.93;83.35;99733.58;4172914;83;21106;-81
2021/08/13 00:12:12;;;;;;;17.42;13.32;;;;;;;13.81;83.29;99735.81;4172105;83;21058;-82
2021/08/13 00:18:13;;;;;;;20.95;13.85;;;;;;;13.72;83.73;99733.94;4178399;83;21599;-81
2021/08/13 00:24:15;;;;;;;20.15;14.28;;;;;;;13.72;83.89;99747.12;4181155;83;21067;-81
2021/08/13 00:30:16;;;;;;;17.95;13.35;;;;;;;13.77;84.39;99748.73;4174467;83;21038;-81
2021/08/13 00:36:18;;;;;;;16.02;12.35;;;;;;;13.68;84.12;99753.75;4164138;83;21011;-81
2021/08/13 00:42:20;;;;;;;19.50;13.48;;;;;;;13.66;84.45;99761.58;4174678;83;21051;-81
2021/08/13 00:48:23;;;;;;;15.65;12.63;;;;;;;13.54;84.32;99744.77;4173564;83;21690;-80
2021/08/13 00:54:32;;;;;;;19.35;13.10;;;;;;;13.48;84.53;99746.86;4138722;83;21094;-82
2021/08/13 01:00:36;;;;;;;17.48;13.98;;;;;;;13.43;84.67;99745.81;4173258;83;21652;-81
2021/08/13 01:06:39;;;;;;;16.77;12.82;;;;;;;13.46;84.97;99747.23;4169977;83;21491;-81
2021/08/13 01:13:14;;;;;;;16.85;12.65;;;;;;;13.28;84.71;99745.45;4177552;83;21059;-81
2021/08/13 01:19:48;;;;;;;17.27;13.25;;;;;;;13.17;85.00;99745.89;4179562;83;21058;-80
2021/08/13 01:25:58;;;;;;;16.57;14.38;;;;;;;13.18;85.31;99744.72;4163742;83;21718;-81
2021/08/13 01:32:22;;;;;;;20.48;13.53;;;;;;;13.05;85.01;99746.11;4171960;83;21612;-80
2021/08/13 01:38:29;;;;;;;17.00;11.88;;;;;;;13.14;86.24;99739.17;4180832;83;21079;-81
2021/08/13 01:44:37;;;;;;;18.75;10.90;;;;;;;13.20;85.95;99742.40;4162078;83;21114;-81
2021/08/13 01:50:41;;;;;;;16.60;10.82;;;;;;;13.22;85.98;99744.17;4172213;83;21122;-80
2021/08/13 01:56:45;;;;;;;15.80;11.25;;;;;;;13.19;85.81;99746.30;4187089;83;21033;-80
2021/08/13 02:02:49;;;;;;;18.15;11.48;;;;;;;13.16;85.94;99742.34;4179378;83;21610;-81
2021/08/13 02:08:54;;;;;;;15.53;11.53;;;;;;;13.10;85.90;99738.92;4186812;83;21427;-80
2021/08/13 02:14:57;;;;;;;18.50;10.93;;;;;;;13.12;86.10;99743.47;4187525;83;21110;-84
2021/08/13 02:21:05;;;;;;;16.15;10.50;;;;;;;13.02;86.09;99743.54;4143181;83;21083;-82
2021/08/13 02:27:07;;;;;;;;;;;;;;;12.97;86.11;99745.77;4131174;83;21147;-80
2021/08/13 02:33:10;;;;;;;15.25;11.40;;;;;;;13.01;86.73;99750.21;4129953;83;20114;-80
2021/08/13 02:39:20;;;;;;;16.15;11.50;;;;;;;13.03;86.36;99743.73;4160070;84;21083;-80
2021/08/13 02:45:24;;;;;;;12.65;10.60;;;;;;;12.99;86.18;99740.13;4123863;83;21042;-80
2021/08/13 02:51:32;;;;;;;14.03;11.03;;;;;;;12.89;86.12;99742.75;4146416;83;21063;-83
2021/08/13 02:57:37;;;;;;;17.17;11.55;;;;;;;12.73;86.34;99736.63;4114011;84;21124;-81
2021/08/13 03:03:42;;;;;;;19.80;12.67;;;;;;;12.79;86.50;99735.94;4099387;84;21622;-81
2021/08/13 03:09:44;;;;;;;14.07;10.60;;;;;;;12.78;86.34;99733.56;4094226;84;21021;-80
2021/08/13 03:15:46;;;;;;;14.63;10.63;;;;;;;12.69;86.77;99736.57;4008724;85;68003;-82
2021/08/13 03:21:49;;;;;;;18.07;10.60;;;;;;;12.73;86.99;99731.94;4050581;86;21089;-80
2021/08/13 03:27:50;;;;;;;16.00;10.35;;;;;;;12.80;86.84;99732.02;4051561;85;21037;-80
2021/08/13 03:33:52;;;;;;;16.25;10.93;;;;;;;12.65;86.64;99735.14;4011566;85;21944;-84
2021/08/13 03:39:53;;;;;;;14.58;10.85;;;;;;;12.62;86.93;99736.48;4027870;86;21046;-80
2021/08/13 03:45:55;;;;;;;14.15;10.72;;;;;;;12.55;87.03;99733.62;4065931;85;21581;-80
2021/08/13 03:51:57;;;;;;;16.90;9.58;;;;;;;12.61;87.23;99732.94;4065244;85;21060;-80
2021/08/13 03:57:59;;;;;;;15.00;9.43;;;;;;;12.56;87.37;99738.73;4001730;86;21550;-80
2021/08/13 04:04:03;;;;;;;20.57;11.73;;;;;;;12.66;87.69;99744.18;3981289;87;21718;-81
2021/08/13 04:10:06;;;;;;;19.70;11.83;;;;;;;12.59;87.58;99739.38;4006728;86;21049;-80
2021/08/13 04:16:07;;;;;;;13.25;11.20;;;;;;;12.53;87.85;99738.11;3910888;88;21034;-80
2021/08/13 04:22:09;;;;;;;16.00;12.15;;;;;;;12.63;88.30;99729.81;4047302;85;21104;-80
2021/08/13 04:28:10;;;;;;;21.40;12.65;;;;;;;12.79;88.56;99729.07;4016488;86;21077;-80
2021/08/13 04:34:13;;;;;;;14.73;11.75;;;;;;;13.05;88.73;99725.50;4072684;84;21052;-81
2021/08/13 04:40:15;;;;;;;15.55;12.55;;;;;;;13.16;88.97;99729.17;4086732;85;21661;-80
2021/08/13 04:46:18;;;;;;;17.30;12.10;;;;;;;13.44;89.00;99734.44;4130067;85;21511;-83
2021/08/13 04:52:20;;;;;;;17.87;13.25;;;;;;;13.74;88.89;99737.91;4093024;84;21690;-80
2021/08/13 04:58:23;;;;;;;17.98;13.28;;;;;;;13.92;88.56;99740.84;4102277;85;21637;-81
2021/08/13 05:04:25;;;;;;;17.57;11.95;;;;;;;14.06;88.42;99744.49;4111702;85;21035;-81
2021/08/13 05:10:26;;;;;;;17.50;12.30;;;;;;;14.22;88.29;99746.21;4054916;86;21512;-83
2021/08/13 05:16:28;;;;;;;16.77;11.90;;;;;;;14.33;88.12;99752.03;4002266;87;21100;-81
2021/08/13 05:22:32;;;;;;;18.85;12.18;;;;;;;14.43;88.09;99757.42;4028902;87;21510;-82
2021/08/13 05:28:33;;;;;;;12.75;10.40;;;;;;;14.46;88.41;99757.45;4011114;87;21076;-82
2021/08/13 05:34:34;;;;;;;15.85;12.70;;;;;;;14.61;88.28;99761.11;4021931;87;21116;-82
2021/08/13 05:40:37;;;;;;;16.10;11.57;;;;;;;14.70;88.30;99759.60;3984480;86;21017;-81
2021/08/13 05:46:40;;;;;;;18.07;12.63;;;;;;;14.84;88.59;99773.47;3994435;86;21529;-83
2021/08/13 05:52:41;;;;;;;17.77;11.12;;;;;;;14.93;88.54;99762.09;4019957;87;21577;-81
2021/08/13 05:58:43;;;;;;;24.90;12.70;;;;;;;15.06;88.52;99766.91;4042519;85;22291;-81
2021/08/13 06:04:45;;;;;;;22.48;12.40;;;;;;;15.29;88.56;99765.23;3996279;86;21099;-81
2021/08/13 06:10:46;;;;;;;17.80;11.15;;;;;;;15.43;88.44;99764.73;3990315;87;21091;-81
2021/08/13 06:16:48;;;;;;;18.48;10.88;;;;;;;15.63;88.30;99758.28;4103222;85;21090;-82
2021/08/13 06:22:50;;;;;;;18.48;10.95;;;;;;;15.88;88.45;99762.50;4121213;84;20974;-82
2021/08/13 06:28:52;;;;;;;16.45;11.18;;;;;;;16.14;88.29;99764.90;4110604;85;21068;-81
2021/08/13 06:34:55;;;;;;;17.70;10.68;;;;;;;16.37;88.46;99765.30;4106388;84;21028;-83
2021/08/13 06:40:59;;;;;;;15.05;10.65;;;;;;;16.59;87.81;99766.31;4112598;85;21078;-84
2021/08/13 06:47:00;;;;;;;13.62;9.23;;;;;;;16.80;88.03;99770.42;4107801;84;21094;-82
2021/08/13 06:53:02;;;;;;;16.12;10.40;;;;;;;17.08;88.21;99764.86;4107769;85;21578;-82
2021/08/13 06:59:04;;;;;;;19.95;10.53;;;;;;;17.33;88.02;99755.08;4117756;85;21682;-81
2021/08/13 07:05:06;;;;;;;12.55;9.55;;;;;;;17.59;88.16;99749.63;4113081;85;21029;-84
2021/08/13 07:11:08;;;;;;;12.37;9.15;;;;;;;17.92;88.08;99749.84;4112007;85;22340;-83
2021/08/13 07:17:10;;;;;;;10.65;8.83;;;;;;;18.15;87.62;99738.22;4128498;84;21689;-82
2021/08/13 07:23:12;;;;;;;14.87;8.65;;;;;;;18.37;87.22;99732.08;4108577;85;21046;-81
2021/08/13 07:29:13;;;;;;;13.32;8.05;;;;;;;18.73;87.00;99744.27;4127804;84;21622;-82
2021/08/13 07:35:16;;;;;;;9.35;6.80;;;;;;;19.05;86.33;99739.16;4105572;85;21114;-83
2021/08/13 07:41:22;;;;;;;;;;;;;;;19.36;85.35;99744.96;4123063;84;21063;-82
2021/08/13 07:47:24;;;;;;;13.78;6.85;;;;;;;19.68;83.84;99748.92;4110802;85;20185;-82
2021/08/13 07:53:26;;;;;;;9.48;6.42;;;;;;;20.08;84.52;99745.15;4121048;85;21031;-84
2021/08/13 07:59:28;;;;;;;6.85;5.80;;;;;;;20.73;82.96;99742.91;4121142;84;21471;-83
2021/08/13 08:05:30;;;;;;;8.10;5.20;;;;;;;21.39;81.55;99735.28;4116812;85;21070;-83
2021/08/13 08:11:31;;;;;;;10.15;5.87;;;;;;;21.66;80.50;99735.88;4128248;85;21131;-84
2021/08/13 08:17:32;;;;;;;6.17;5.37;;;;;;;22.02;80.12;99734.52;4095063;85;21024;-83
2021/08/13 08:23:33;;;;;;;7.05;5.33;;;;;;;22.35;79.22;99735.48;4110091;85;21646;-84
2021/08/13 08:29:34;;;;;;;6.15;5.08;;;;;;;22.62;78.39;99740.20;4126985;85;21052;-84
2021/08/13 08:35:35;;;;;;;7.00;5.33;;;;;;;22.79;75.34;99738.16;4109156;85;21567;-84
2021/08/13 08:41:37;;;;;;;7.78;5.15;;;;;;;22.89;75.86;99743.48;4113025;84;21102;-84
2021/08/13 08:47:39;;;;;;;7.12;4.92;;;;;;;22.96;75.49;99751.66;4120210;85;21050;-83
2021/08/13 08:53:41;;;;;;;8.38;6.15;;;;;;;23.11;74.44;99759.04;4093742;85;21080;-84
2021/08/13 08:59:43;;;;;;;7.55;4.55;;;;;;;23.46;70.21;99757.29;4102383;85;21501;-84
2021/08/13 09:05:44;;;;;;;5.80;4.33;;;;;;;23.54;68.94;99753.83;4113047;85;21066;-84
2021/08/13 09:11:46;;;;;;;6.45;4.60;;;;;;;23.56;70.01;99761.77;4103171;85;21051;-84
2021/08/13 09:17:47;;;;;;;7.12;4.75;;;;;;;23.78;69.91;99755.72;4115174;85;21083;-84
2021/08/13 09:23:48;;;;;;;6.20;4.67;;;;;;;23.93;69.65;99748.48;4112948;85;21034;-84
2021/08/13 09:30:15;;;;;;;5.25;4.28;;;;;;;24.34;69.45;99760.95;4127272;84;21054;-85
2021/08/13 09:36:24;;;;;;;9.28;5.30;;;;;;;24.88;68.24;99756.57;4117970;84;21071;-85
2021/08/13 09:42:38;;;;;;;6.33;4.40;;;;;;;25.46;67.17;99758.48;4084810;85;21640;-86
2021/08/13 09:48:39;;;;;;;8.18;4.75;;;;;;;25.97;65.30;99756.89;4133262;84;21090;-84
2021/08/13 09:54:42;;;;;;;4.45;3.90;;;;;;;26.61;64.73;99750.89;4118848;84;21478;-85
2021/08/13 10:00:45;;;;;;;3.95;3.37;;;;;;;27.17;63.57;99746.30;4131579;84;20971;-85
2021/08/13 10:06:49;;;;;;;6.42;3.25;;;;;;;28.06;62.87;99748.02;4044205;86;21101;-85
2021/08/13 10:12:54;;;;;;;4.22;2.72;;;;;;;28.50;57.55;99747.69;3975316;86;21637;-85
2021/08/13 10:18:55;;;;;;;4.15;3.05;;;;;;;28.84;56.90;99745.73;4047057;85;21097;-86
2021/08/13 10:25:02;;;;;;;4.20;3.30;;;;;;;29.03;53.17;99738.08;4036181;86;21053;-85
2021/08/13 10:31:07;;;;;;;4.78;3.45;;;;;;;29.22;51.02;99744.36;4055616;85;21110;-85
2021/08/13 10:37:15;;;;;;;3.75;3.20;;;;;;;29.77;53.21;99731.27;4047172;85;21570;-85
2021/08/13 10:43:23;;;;;;;4.90;3.00;;;;;;;29.77;50.37;99736.91;3996497;86;33167;-87
2021/08/13 10:49:26;;;;;;;3.15;2.83;;;;;;;30.01;50.50;99732.56;4032414;86;21036;-85
2021/08/13 10:55:47;;;;;;;3.08;2.55;;;;;;;30.05;49.80;99728.92;4030649;86;21186;-86
2021/08/13 11:02:12;;;;;;;6.53;3.05;;;;;;;29.96;49.53;99729.80;4002159;86;21536;-83
2021/08/13 11:08:15;;;;;;;4.65;3.00;;;;;;;29.68;44.50;99720.09;4024220;86;21016;-85
2021/08/13 11:14:26;;;;;;;3.77;2.77;;;;;;;29.38;46.53;99713.51;4033944;86;21071;-83
2021/08/13 11:20:34;;;;;;;5.60;2.60;;;;;;;29.52;45.92;99706.44;4020064;86;21099;-85
2021/08/13 11:26:59;;;;;;;4.53;2.98;;;;;;;29.91;46.13;99705.73;4021449;86;21578;-86
2021/08/13 11:33:14;;;;;;;5.85;3.25;;;;;;;30.28;42.63;99699.14;4008274;86;21561;-85
2021/08/13 11:39:39;;;;;;;6.40;3.37;;;;;;;30.14;44.48;99699.94;4021828;86;21649;-86
2021/08/13 11:45:48;;;;;;;4.67;2.98;;;;;;;30.56;44.64;99689.63;3843653;89;21111;-84
2021/08/13 11:51:54;;;;;;;4.85;2.62;;;;;;;30.63;44.17;99686.39;3924597;87;21102;-86
2021/08/13 11:58:00;;;;;;;4.28;2.83;;;;;;;30.55;44.73;99687.42;3924573;88;21082;-85
2021/08/13 12:04:25;;;;;;;4.12;3.05;;;;;;;30.25;44.69;99679.58;3971507;86;21080;-86
2021/08/13 12:10:29;;;;;;;5.20;3.30;;;;;;;29.60;45.25;99686.45;3957708;87;21065;-85
2021/08/13 12:16:47;;;;;;;;;;;;;;;29.33;45.00;99671.88;3904162;88;21583;-86
2021/08/13 12:23:01;;;;;;;5.58;3.40;;;;;;;29.06;45.14;99672.93;3929116;87;20111;-85
2021/08/13 12:29:09;;;;;;;5.20;3.87;;;;;;;28.86;45.35;99665.08;3953323;88;21137;-85
2021/08/13 12:35:17;;;;;;;6.92;4.35;;;;;;;28.52;45.12;99661.45;3919962;87;21101;-86
2021/08/13 12:41:18;;;;;;;6.25;3.30;;;;;;;28.32;45.60;99659.84;3946312;87;21136;-85
2021/08/13 12:47:20;;;;;;;5.53;3.70;;;;;;;28.23;46.43;99651.45;3927424;88;21111;-87
2021/08/13 12:53:38;;;;;;;4.97;3.67;;;;;;;28.02;47.45;99642.66;3879761;89;21561;-85
2021/08/13 12:59:49;;;;;;;5.42;4.03;;;;;;;27.73;47.41;99641.69;4004970;86;21649;-86
2021/08/13 13:06:09;;;;;;;7.33;3.58;;;;;;;27.70;46.82;99637.80;4014715;86;21130;-86
2021/08/13 13:12:21;;;;;;;5.47;3.98;;;;;;;27.75;47.82;99636.37;4028010;86;21088;-85
2021/08/13 13:18:25;;;;;;;4.72;3.90;;;;;;;27.61;47.85;99630.81;4034221;86;21067;-84
2021/08/13 13:24:32;;;;;;;5.08;3.98;;;;;;;27.50;48.30;99627.08;4022110;86;21525;-84
2021/08/13 13:30:47;;;;;;;6.90;3.77;;;;;;;27.53;48.90;99622.56;4029955;86;21101;-85
2021/08/13 13:36:51;;;;;;;7.05;3.95;;;;;;;27.30;49.85;99624.03;4021924;85;21053;-85
2021/08/13 13:42:56;;;;;;;7.00;4.03;;;;;;;27.26;50.25;99617.81;4006789;86;21072;-85
2021/08/13 13:48:57;;;;;;;4.80;3.90;;;;;;;27.23;51.02;99611.70;4005831;86;21017;-85
2021/08/13 13:54:59;;;;;;;6.35;3.98;;;;;;;27.09;50.45;99605.30;4009818;86;21111;-85
2021/08/13 14:01:01;;;;;;;4.53;3.67;;;;;;;27.14;50.38;99606.08;4019817;86;21040;-85
2021/08/13 14:07:03;;;;;;;6.90;3.75;;;;;;;27.16;50.80;99591.55;4011972;86;21047;-83
2021/08/13 14:13:04;;;;;;;7.25;4.67;;;;;;;27.18;50.51;99584.23;4018277;87;21070;-84
2021/08/13 14:19:07;;;;;;;4.83;4.33;;;;;;;27.31;49.47;99584.06;4020008;86;21181;-84
2021/08/13 14:25:22;;;;;;;4.78;3.70;;;;;;;27.29;48.63;99580.31;4012105;87;21335;-85
2021/08/13 14:31:34;;;;;;;4.15;3.75;;;;;;;27.22;49.23;99576.39;4040549;85;86149;-85
2021/08/13 14:37:36;;;;;;;4.65;4.10;;;;;;;27.11;50.21;99571.90;4150478;83;21263;-86
2021/08/13 14:43:42;;;;;;;6.40;4.40;;;;;;;26.97;51.39;99568.99;4133750;82;21063;-84
2021/08/13 14:49:44;;;;;;;5.08;4.30;;;;;;;26.83;51.48;99564.00;4037758;86;21049;-85
2021/08/13 14:55:46;;;;;;;5.78;4.05;;;;;;;26.77;51.99;99565.27;4104385;84;21062;-86
2021/08/13 15:01:56;;;;;;;6.15;4.00;;;;;;;26.71;52.00;99561.55;4093493;85;21668;-85
2021/08/13 15:07:58;;;;;;;6.12;4.22;;;;;;;26.67;52.75;99552.48;4097085;84;21035;-86
2021/08/13 15:14:01;;;;;;;7.30;4.22;;;;;;;26.62;52.94;99557.31;4094619;85;21571;-84
2021/08/13 15:20:09;;;;;;;5.28;4.22;;;;;;;26.55;53.06;99554.02;4111449;84;21065;-85
2021/08/13 15:26:11;;;;;;;5.78;4.22;;;;;;;26.49;53.01;99540.47;4135730;84;21018;-85
2021/08/13 15:32:16;;;;;;;5.22;4.30;;;;;;;26.46;53.29;99538.59;4104237;85;21057;-85
2021/08/13 15:38:18;;;;;;;5.03;4.03;;;;;;;26.43;53.86;99535.33;4074072;84;21109;-85
2021/08/13 15:44:19;;;;;;;5.53;4.45;;;;;;;26.29;54.98;99528.33;4077046;84;21004;-85
2021/08/13 15:50:23;;;;;;;6.42;4.20;;;;;;;26.29;54.98;99528.33;4067900;85;21153;-85
2021/08/13 15:56:31;;;;;;;6.10;4.58;;;;;;;26.15;54.72;99528.95;4028544;85;21082;-85
2021/08/13 16:02:33;;;;;;;7.08;4.08;;;;;;;26.10;54.87;99521.94;4099969;85;21629;-85
2021/08/13 16:08:34;;;;;;;5.67;4.17;;;;;;;26.06;55.25;99526.12;4011206;87;21111;-85
2021/08/13 16:14:36;;;;;;;9.40;4.55;;;;;;;25.98;55.45;99522.06;4075393;85;21078;-86
2021/08/13 16:20:37;;;;;;;6.10;4.62;;;;;;;25.93;55.56;99517.06;4085137;84;21619;-86
2021/08/13 16:26:40;;;;;;;6.03;4.28;;;;;;;25.85;55.88;99520.00;4094480;84;21117;-85
2021/08/13 16:32:41;;;;;;;7.03;4.17;;;;;;;25.77;56.06;99520.14;4114526;84;21059;-85
2021/08/13 16:38:43;;;;;;;8.73;4.40;;;;;;;25.75;56.27;99513.59;4113433;84;21106;-86
2021/08/13 16:44:44;;;;;;;5.78;4.87;;;;;;;25.56;57.06;99510.59;4111452;84;21073;-85
2021/08/13 16:50:46;;;;;;;4.87;3.98;;;;;;;25.56;57.06;99510.59;4023900;84;10000187;-86
2021/08/13 16:56:47;;;;;;;5.92;4.80;;;;;;;25.47;57.38;99509.78;4125823;84;21072;-86
2021/08/13 17:02:48;;;;;;;7.15;4.78;;;;;;;25.35;57.82;99509.30;4091539;84;22256;-85
2021/08/13 17:08:51;;;;;;;5.20;4.70;;;;;;;25.26;58.34;99510.64;4091824;85;21083;-85
2021/08/13 17:14:53;;;;;;;7.35;4.67;;;;;;;25.15;59.05;99518.05;4058527;84;21025;-85
2021/08/13 17:20:56;;;;;;;6.47;5.00;;;;;;;25.02;59.42;99512.39;4083276;84;21518;-86
2021/08/13 17:26:59;;;;;;;8.73;5.05;;;;;;;24.91;59.92;99521.83;4076179;84;21051;-86
2021/08/13 17:33:01;;;;;;;7.45;5.40;;;;;;;24.80;60.52;99526.44;4106513;85;21079;-86
2021/08/13 17:39:02;;;;;;;6.47;5.20;;;;;;;24.67;60.97;99533.37;4112415;84;21508;-86
2021/08/13 17:45:05;;;;;;;7.92;5.55;;;;;;;24.46;61.72;99541.26;4136203;85;21567;-86
2021/08/13 17:51:06;;;;;;;7.60;5.97;;;;;;;24.17;62.58;99539.33;3992214;85;10000300;-85
2021/08/13 17:57:08;;;;;;;9.40;6.10;;;;;;;23.90;63.48;99536.87;4097130;84;21051;-86
2021/08/13 18:03:12;;;;;;;9.70;6.95;;;;;;;23.69;64.37;99531.39;4118788;84;21099;-85
2021/08/13 18:09:13;;;;;;;11.35;7.37;;;;;;;23.49;64.87;99539.84;4130784;84;21009;-86
2021/08/13 18:15:14;;;;;;;13.15;7.65;;;;;;;23.34;65.38;99541.52;4121807;84;21627;-85
2021/08/13 18:21:16;;;;;;;15.35;9.48;;;;;;;23.18;65.58;99540.98;4103110;84;21029;-86
2021/08/13 18:27:17;;;;;;;16.05;10.20;;;;;;;23.03;65.86;99542.06;4115244;85;21015;-87
2021/08/13 18:33:18;;;;;;;14.65;10.15;;;;;;;22.89;66.08;99542.48;4166526;85;21029;-86
2021/08/13 18:39:21;;;;;;;14.35;10.43;;;;;;;22.75;66.60;99544.31;4107773;84;21037;-85
2021/08/13 18:45:22;;;;;;;20.37;13.58;;;;;;;22.66;66.87;99541.36;4102244;84;21049;-83
2021/08/13 18:51:23;;;;;;;16.97;11.30;;;;;;;22.51;67.16;99536.59;4092125;85;21970;-84
2021/08/13 18:57:25;;;;;;;13.40;9.50;;;;;;;22.37;67.78;99535.00;4106064;85;21071;-85
2021/08/13 19:03:28;;;;;;;13.40;9.85;;;;;;;22.28;68.18;99539.05;4078290;85;21031;-85
2021/08/13 19:09:29;;;;;;;15.08;9.38;;;;;;;22.17;68.59;99539.16;4090241;85;21510;-85
2021/08/13 19:15:33;;;;;;;16.27;9.53;;;;;;;22.08;69.17;99540.41;4028075;85;21127;-85
2021/08/13 19:21:34;;;;;;;12.55;8.98;;;;;;;21.90;68.97;99543.66;3938838;85;10000529;-85
2021/08/13 19:27:36;;;;;;;17.52;11.00;;;;;;;21.76;70.11;99546.80;3986768;87;21042;-85
2021/08/13 19:33:39;;;;;;;15.98;10.78;;;;;;;21.69;70.72;99542.16;3968478;87;21027;-86
2021/08/13 19:39:46;;;;;;;17.42;10.98;;;;;;;21.47;70.78;99535.54;3979964;86;21092;-86
2021/08/13 19:45:48;;;;;;;27.42;16.65;;;;;;;21.32;71.26;99541.28;3969945;87;21026;-86
2021/08/13 19:51:52;;;;;;;22.50;13.55;;;;;;;21.03;71.96;99540.98;4048986;86;22124;-85
2021/08/13 19:57:53;;;;;;;19.25;13.32;;;;;;;20.90;72.68;99538.05;4035925;86;21064;-85
2021/08/13 20:03:55;;;;;;;24.32;14.87;;;;;;;20.84;73.44;99544.55;4052682;85;21090;-85
2021/08/13 20:09:56;;;;;;;14.73;11.05;;;;;;;20.77;74.09;99544.69;4126292;84;21881;-85
2021/08/13 20:15:59;;;;;;;21.55;12.58;;;;;;;20.64;74.38;99541.77;4122104;84;21028;-85
2021/08/13 20:22:03;;;;;;;21.35;10.72;;;;;;;20.59;74.97;99552.03;4127374;84;21138;-85
2021/08/13 20:28:05;;;;;;;19.73;12.43;;;;;;;20.51;75.31;99561.73;4101612;84;21079;-85
2021/08/13 20:34:06;;;;;;;20.43;12.07;;;;;;;20.40;75.84;99557.58;4123322;84;21081;-85
2021/08/13 20:40:09;;;;;;;14.63;11.12;;;;;;;20.31;76.35;99553.98;4125174;84;21419;-84
2021/08/13 20:46:10;;;;;;;17.50;12.45;;;;;;;20.23;76.84;99562.28;4132651;83;21101;-85
2021/08/13 20:52:12;;;;;;;17.57;13.45;;;;;;;20.12;77.26;99551.93;4125166;84;21072;-85
2021/08/13 20:58:13;;;;;;;15.40;12.18;;;;;;;19.96;77.65;99553.21;4136103;83;21072;-85
2021/08/13 21:04:14;;;;;;;20.95;13.00;;;;;;;19.89;78.24;99549.16;4097167;84;21057;-85
2021/08/13 21:10:16;;;;;;;14.65;12.10;;;;;;;19.82;78.57;99546.52;4097033;83;23006;-85
2021/08/13 21:16:19;;;;;;;17.82;13.10;;;;;;;19.71;79.04;99551.47;4112592;84;22420;-85
2021/08/13 21:22:20;;;;;;;19.55;13.75;;;;;;;19.59;79.26;99543.74;4125250;84;21052;-85
2021/08/13 21:28:22;;;;;;;19.37;12.88;;;;;;;19.41;79.69;99536.28;4125905;83;21086;-84
2021/08/13 21:34:23;;;;;;;24.77;15.10;;;;;;;19.31;80.20;99533.09;4134694;84;21028;-85
2021/08/13 21:40:28;;;;;;;15.25;12.53;;;;;;;19.24;80.61;99529.78;4115284;84;21059;-84
2021/08/13 21:46:28;;;;;;;17.30;13.08;;;;;;;19.14;80.91;99529.95;4134572;84;21048;-85
2021/08/13 21:52:29;;;;;;;17.70;14.15;;;;;;;19.04;81.26;99518.40;4131417;83;22365;-85
2021/08/13 21:58:30;;;;;;;16.57;11.55;;;;;;;19.00;81.69;99523.20;4148124;84;21072;-86
2021/08/13 22:04:32;;;;;;;17.75;12.53;;;;;;;19.09;82.20;99537.36;4145387;84;21529;-85
2021/08/13 22:10:33;;;;;;;20.97;13.60;;;;;;;19.17;82.29;99531.89;4095670;85;21075;-84
2021/08/13 22:16:35;;;;;;;17.25;11.53;;;;;;;19.06;82.42;99528.48;4099129;84;21058;-85
2021/08/13 22:22:37;;;;;;;17.12;12.10;;;;;;;19.04;82.68;99528.91;4136598;84;21011;-84
2021/08/13 22:28:38;;;;;;;20.32;14.03;;;;;;;18.89;82.67;99526.75;4111360;84;21148;-84
2021/08/13 22:34:39;;;;;;;19.48;13.90;;;;;;;18.77;82.95;99521.16;4111560;84;21619;-84
2021/08/13 22:40:42;;;;;;;24.15;14.63;;;;;;;18.66;83.24;99512.98;4119585;84;21053;-84
2021/08/13 22:46:43;;;;;;;17.98;13.50;;;;;;;18.53;83.40;99518.89;4094668;84;21036;-85
2021/08/13 22:52:45;;;;;;;14.18;11.95;;;;;;;18.39;83.78;99520.45;4135080;84;21088;-85
2021/08/13 22:58:46;;;;;;;20.37;14.55;;;;;;;18.36;84.33;99518.48;4106491;84;21011;-84
2021/08/13 23:04:47;;;;;;;18.85;14.00;;;;;;;18.31;84.14;99527.83;4130448;84;21143;-85
2021/08/13 23:10:49;;;;;;;21.25;15.95;;;;;;;18.08;84.29;99524.93;4142760;84;20989;-84
2021/08/13 23:16:50;;;;;;;17.80;13.43;;;;;;;17.94;84.72;99520.92;4130091;84;21059;-85
2021/08/13 23:22:51;;;;;;;16.27;13.40;;;;;;;17.85;85.30;99530.31;4121771;84;21039;-84
2021/08/13 23:28:53;;;;;;;18.52;13.35;;;;;;;17.91;85.48;99535.01;4122848;84;21098;-85
2021/08/13 23:34:54;;;;;;;22.05;15.50;;;;;;;17.91;85.41;99532.23;4124033;84;21067;-85
2021/08/13 23:40:55;;;;;;;19.05;14.35;;;;;;;17.80;85.71;99526.60;4139255;83;21606;-84
2021/08/13 23:46:57;;;;;;;26.35;15.95;;;;;;;17.71;85.80;99529.06;4087794;84;21134;-84
2021/08/13 23:52:58;;;;;;;18.10;15.08;;;;;;;17.59;86.19;99528.96;4109282;85;21106;-85
2021/08/13 23:58:59;;;;;;;18.42;13.35;;;;;;;17.54;86.49;99530.02;4091288;85;21066;-85
